createdAt,value
2023-04-01T00:01:25.380Z,9.10
2023-04-01T00:03:52.162Z,9.10
2023-04-01T00:06:19.995Z,9.10
2023-04-01T00:08:47.571Z,9.00
2023-04-01T00:11:14.847Z,9.00
2023-04-01T00:13:42.006Z,9.00
2023-04-01T00:16:19.965Z,9.00
2023-04-01T00:18:49.213Z,9.00
2023-04-01T00:21:16.795Z,9.00
2023-04-01T00:23:43.490Z,9.00
2023-04-01T00:26:10.481Z,9.00
2023-04-01T00:28:38.169Z,9.00
2023-04-01T00:31:07.367Z,9.00
2023-04-01T00:33:35.492Z,9.00
2023-04-01T00:36:09.294Z,9.00
2023-04-01T00:38:36.346Z,9.00
2023-04-01T00:41:03.124Z,9.00
2023-04-01T00:43:30.072Z,9.00
2023-04-01T00:45:56.778Z,9.00
2023-04-01T00:48:31.669Z,9.00
2023-04-01T00:51:07.208Z,9.00
2023-04-01T00:53:37.292Z,9.10
2023-04-01T00:56:13.682Z,9.00
2023-04-01T00:58:45.031Z,9.10
2023-04-01T01:01:12.029Z,9.00
2023-04-01T01:03:38.843Z,9.10
2023-04-01T01:06:26.200Z,9.00
2023-04-01T01:09:34.382Z,9.10
2023-04-01T01:12:25.358Z,9.00
2023-04-01T01:15:09.827Z,9.00
2023-04-01T01:18:10.877Z,9.00
2023-04-01T01:20:55.665Z,9.00
2023-04-01T01:23:43.745Z,9.00
2023-04-01T01:26:41.197Z,9.00
2023-04-01T01:29:45.089Z,8.90
2023-04-01T01:32:50.610Z,8.90
2023-04-01T01:35:34.343Z,8.90
2023-04-01T01:38:08.286Z,8.80
2023-04-01T01:40:37.535Z,8.80
2023-04-01T01:43:08.570Z,8.90
2023-04-01T01:45:40.460Z,8.80
2023-04-01T01:48:09.150Z,8.80
2023-04-01T01:50:37.322Z,8.80
2023-04-01T01:53:06.395Z,8.80
2023-04-01T01:55:36.262Z,8.80
2023-04-01T01:58:20.805Z,8.80
2023-04-01T02:00:53.599Z,8.80
2023-04-01T02:03:23.943Z,8.80
2023-04-01T02:05:56.031Z,8.80
2023-04-01T02:08:30.700Z,8.80
2023-04-01T02:11:01.874Z,8.80
2023-04-01T02:13:59.305Z,8.80
2023-04-01T02:16:45.294Z,8.90
2023-04-01T02:19:14.252Z,8.80
2023-04-01T02:21:43.364Z,8.80
2023-04-01T02:24:14.966Z,8.80
2023-04-01T02:26:42.543Z,8.80
2023-04-01T02:29:12.289Z,8.80
2023-04-01T02:31:39.378Z,8.80
2023-04-01T02:34:06.225Z,8.80
2023-04-01T02:36:35.606Z,8.80
2023-04-01T02:39:05.166Z,8.70
2023-04-01T02:41:31.966Z,8.80
2023-04-01T02:44:00.192Z,8.80
2023-04-01T02:46:26.975Z,8.80
2023-04-01T02:48:54.612Z,8.70
2023-04-01T02:51:21.361Z,8.80
2023-04-01T02:53:48.043Z,8.80
2023-04-01T02:56:15.020Z,8.70
2023-04-01T02:58:41.636Z,8.70
2023-04-01T03:01:09.183Z,8.70
2023-04-01T03:03:36.078Z,8.70
2023-04-01T03:06:11.211Z,8.70
2023-04-01T03:08:38.115Z,8.70
2023-04-01T03:11:06.063Z,8.70
2023-04-01T03:13:35.276Z,8.70
2023-04-01T03:16:02.552Z,8.70
2023-04-01T03:18:29.272Z,8.70
2023-04-01T03:20:57.315Z,8.60
2023-04-01T03:23:25.196Z,8.70
2023-04-01T03:25:51.818Z,8.70
2023-04-01T03:28:18.555Z,8.60
2023-04-01T03:30:45.238Z,8.60
2023-04-01T03:33:12.072Z,8.60
2023-04-01T03:35:38.699Z,8.60
2023-04-01T03:38:06.864Z,8.60
2023-04-01T03:40:34.087Z,8.60
2023-04-01T03:43:00.919Z,8.60
2023-04-01T03:45:27.906Z,8.60
2023-04-01T03:47:55.163Z,8.60
2023-04-01T03:50:22.006Z,8.60
2023-04-01T03:52:48.786Z,8.60
2023-04-01T03:55:16.364Z,8.60
2023-04-01T03:57:43.100Z,8.60
2023-04-01T04:00:17.650Z,8.60
2023-04-01T04:02:47.372Z,8.60
2023-04-01T04:05:19.801Z,8.60
2023-04-01T04:07:46.505Z,8.60
2023-04-01T04:10:13.163Z,8.60
2023-04-01T04:12:41.344Z,8.60
2023-04-01T04:15:09.604Z,8.60
2023-04-01T04:17:36.528Z,8.60
2023-04-01T04:20:04.099Z,8.60
2023-04-01T04:22:30.776Z,8.60
2023-04-01T04:24:57.476Z,8.60
2023-04-01T04:27:24.151Z,8.60
2023-04-01T04:30:02.681Z,8.60
2023-04-01T04:32:31.496Z,8.60
2023-04-01T04:34:58.456Z,8.60
2023-04-01T04:37:26.739Z,8.60
2023-04-01T04:39:53.727Z,8.50
2023-04-01T04:42:20.609Z,8.50
2023-04-01T04:44:47.342Z,8.50
2023-04-01T04:47:14.480Z,8.50
2023-04-01T04:49:41.358Z,8.50
2023-04-01T04:52:09.993Z,8.50
2023-04-01T04:54:36.659Z,8.60
2023-04-01T04:57:04.890Z,8.60
2023-04-01T04:59:37.528Z,8.60
2023-04-01T05:02:12.182Z,8.60
2023-04-01T05:04:38.903Z,8.60
2023-04-01T05:07:09.613Z,8.60
2023-04-01T05:09:36.315Z,8.60
2023-04-01T05:12:03.738Z,8.60
2023-04-01T05:14:45.781Z,8.60
2023-04-01T05:17:13.261Z,8.60
2023-04-01T05:19:40.373Z,8.60
2023-04-01T05:22:07.782Z,8.60
2023-04-01T05:24:34.692Z,8.70
2023-04-01T05:27:01.374Z,8.70
2023-04-01T05:29:29.483Z,8.70
2023-04-01T05:32:03.945Z,8.70
2023-04-01T05:34:31.118Z,8.70
2023-04-01T05:36:57.816Z,8.70
2023-04-01T05:39:24.706Z,8.70
2023-04-01T05:41:51.348Z,8.70
2023-04-01T05:44:18.058Z,8.70
2023-04-01T05:47:10.759Z,8.70
2023-04-01T05:49:37.848Z,8.70
2023-04-01T05:52:05.299Z,8.70
2023-04-01T05:54:35.295Z,8.70
2023-04-01T05:57:02.655Z,8.60
2023-04-01T05:59:29.714Z,8.60
2023-04-01T06:01:57.777Z,8.60
2023-04-01T06:04:26.535Z,8.60
2023-04-01T06:06:53.260Z,8.60
2023-04-01T06:09:26.958Z,8.60
2023-04-01T06:12:10.262Z,8.60
2023-04-01T06:15:12.266Z,8.60
2023-04-01T06:17:53.300Z,8.60
2023-04-01T06:20:44.259Z,8.60
2023-04-01T06:23:33.459Z,8.60
2023-04-01T06:26:06.553Z,8.60
2023-04-01T06:28:47.508Z,8.60
2023-04-01T06:31:36.497Z,8.60
2023-04-01T06:34:12.370Z,8.60
2023-04-01T06:36:51.524Z,8.60
2023-04-01T06:39:37.426Z,8.60
2023-04-01T06:42:32.036Z,8.60
2023-04-01T06:45:19.796Z,8.60
2023-04-01T06:48:45.706Z,8.70
2023-04-01T06:51:46.888Z,8.80
2023-04-01T06:54:32.397Z,8.90
2023-04-01T06:57:42.758Z,9.00
2023-04-01T07:00:18.296Z,9.20
2023-04-01T07:02:59.537Z,9.20
2023-04-01T07:05:32.191Z,9.20
2023-04-01T07:08:03.493Z,9.20
2023-04-01T07:11:03.532Z,9.30
2023-04-01T07:13:58.598Z,9.40
2023-04-01T07:16:34.658Z,9.40
2023-04-01T07:19:30.564Z,9.40
2023-04-01T07:22:32.435Z,9.40
2023-04-01T07:25:18.789Z,9.40
2023-04-01T07:28:06.170Z,9.40
2023-04-01T07:31:02.924Z,9.50
2023-04-01T07:33:56.043Z,9.50
2023-04-01T07:36:33.123Z,9.60
2023-04-01T07:39:09.057Z,9.60
2023-04-01T07:42:22.027Z,9.70
2023-04-01T07:45:03.458Z,9.70
2023-04-01T07:48:07.757Z,9.90
2023-04-01T07:50:42.212Z,9.90
2023-04-01T07:53:37.164Z,9.90
2023-04-01T07:56:29.949Z,9.90
2023-04-01T07:59:08.698Z,10.00
2023-04-01T08:02:13.704Z,9.90
2023-04-01T08:05:11.841Z,9.80
2023-04-01T08:08:09.709Z,9.70
2023-04-01T08:11:17.329Z,9.70
2023-04-01T08:14:37.375Z,9.70
2023-04-01T08:17:48.399Z,9.60
2023-04-01T08:20:27.089Z,9.50
2023-04-01T08:23:14.067Z,9.50
2023-04-01T08:26:11.585Z,9.50
2023-04-01T08:28:52.233Z,9.40
2023-04-01T08:31:34.105Z,9.40
2023-04-01T08:34:05.688Z,9.30
2023-04-01T08:36:36.998Z,9.30
2023-04-01T08:39:33.552Z,9.30
2023-04-01T08:42:05.152Z,9.40
2023-04-01T08:45:02.637Z,9.30
2023-04-01T08:47:46.149Z,9.30
2023-04-01T08:50:53.841Z,9.50
2023-04-01T08:53:28.926Z,9.50
2023-04-01T08:56:33.870Z,9.50
2023-04-01T08:59:15.878Z,9.50
2023-04-01T09:01:54.666Z,9.60
2023-04-01T09:05:06.369Z,9.60
2023-04-01T09:07:50.471Z,9.60
2023-04-01T09:10:41.187Z,9.70
2023-04-01T09:14:03.814Z,9.80
2023-04-01T09:16:47.265Z,9.80
2023-04-01T09:19:41.324Z,9.80
2023-04-01T09:22:34.101Z,9.90
2023-04-01T09:25:00.987Z,9.90
2023-04-01T09:27:31.825Z,9.90
2023-04-01T09:30:31.624Z,10.00
2023-04-01T09:33:16.978Z,10.20
2023-04-01T09:36:12.881Z,10.40
2023-04-01T09:39:04.493Z,10.20
2023-04-01T09:41:51.714Z,10.20
2023-04-01T09:44:42.954Z,10.40
2023-04-01T09:47:56.910Z,10.70
2023-04-01T09:50:48.266Z,10.80
2023-04-01T09:53:42.142Z,11.00
2023-04-01T09:56:40.810Z,11.20
2023-04-01T09:59:47.131Z,11.30
2023-04-01T10:03:24.074Z,11.20
2023-04-01T10:06:18.184Z,11.40
2023-04-01T10:09:16.221Z,11.40
2023-04-01T10:11:52.199Z,11.30
2023-04-01T10:14:37.841Z,11.10
2023-04-01T10:17:37.447Z,11.30
2023-04-01T10:20:20.859Z,11.30
2023-04-01T10:23:31.569Z,11.40
2023-04-01T10:26:08.303Z,11.60
2023-04-01T10:28:45.723Z,11.90
2023-04-01T10:31:59.342Z,11.80
2023-04-01T10:34:57.199Z,12.00
2023-04-01T10:37:49.422Z,12.30
2023-04-01T10:40:54.244Z,12.30
2023-04-01T10:44:12.557Z,12.30
2023-04-01T10:46:54.557Z,12.30
2023-04-01T10:49:27.285Z,12.40
2023-04-01T10:52:32.563Z,12.50
2023-04-01T10:55:51.685Z,12.60
2023-04-01T10:58:55.369Z,13.00
2023-04-01T11:02:23.674Z,13.10
2023-04-01T11:05:50.504Z,13.80
2023-04-01T11:08:44.920Z,13.40
2023-04-01T11:11:42.821Z,13.30
2023-04-01T11:14:43.918Z,13.40
2023-04-01T11:17:18.502Z,13.50
2023-04-01T11:20:21.881Z,13.40
2023-04-01T11:23:15.349Z,13.50
2023-04-01T11:26:02.837Z,13.60
2023-04-01T11:29:28.448Z,13.70
2023-04-01T11:32:18.014Z,13.80
2023-04-01T11:35:11.341Z,13.80
2023-04-01T11:38:22.906Z,13.70
2023-04-01T11:41:09.412Z,13.20
2023-04-01T11:44:13.826Z,13.00
2023-04-01T11:46:57.713Z,12.50
2023-04-01T11:49:43.014Z,12.40
2023-04-01T11:52:40.843Z,12.30
2023-04-01T11:55:25.724Z,12.10
2023-04-01T11:58:01.012Z,12.10
2023-04-01T12:00:58.824Z,12.30
2023-04-01T12:03:50.167Z,12.40
2023-04-01T12:06:37.390Z,12.30
2023-04-01T12:09:28.644Z,12.40
2023-04-01T12:12:16.314Z,12.40
2023-04-01T12:14:51.779Z,12.30
2023-04-01T12:17:40.653Z,12.10
2023-04-01T12:20:13.297Z,11.90
2023-04-01T12:23:08.210Z,11.90
2023-04-01T12:26:01.848Z,12.00
2023-04-01T12:29:06.356Z,12.20
2023-04-01T12:31:59.778Z,12.30
2023-04-01T12:34:48.257Z,12.20
2023-04-01T12:37:50.640Z,11.80
2023-04-01T12:40:24.324Z,11.30
2023-04-01T12:43:15.895Z,11.30
2023-04-01T12:45:42.516Z,11.30
2023-04-01T12:48:46.889Z,11.20
2023-04-01T12:51:22.049Z,11.20
2023-04-01T12:54:15.210Z,11.10
2023-04-01T12:57:21.355Z,11.10
2023-04-01T13:00:18.885Z,11.20
2023-04-01T13:02:55.764Z,11.30
2023-04-01T13:05:37.801Z,11.60
2023-04-01T13:08:22.838Z,11.70
2023-04-01T13:11:11.378Z,11.90
2023-04-01T13:13:59.813Z,12.00
2023-04-01T13:16:30.809Z,12.00
2023-04-01T13:19:15.790Z,12.00
2023-04-01T13:21:53.090Z,11.80
2023-04-01T13:24:40.572Z,11.80
2023-04-01T13:27:11.491Z,11.80
2023-04-01T13:30:04.478Z,11.80
2023-04-01T13:32:46.471Z,11.90
2023-04-01T13:36:03.833Z,12.00
2023-04-01T13:38:49.526Z,12.00
2023-04-01T13:41:37.849Z,12.20
2023-04-01T13:44:55.467Z,12.30
2023-04-01T13:47:56.450Z,12.30
2023-04-01T13:50:57.143Z,12.20
2023-04-01T13:53:49.201Z,12.10
2023-04-01T13:56:36.675Z,12.10
2023-04-01T13:59:12.693Z,12.10
2023-04-01T14:01:59.255Z,12.10
2023-04-01T14:04:48.133Z,12.00
2023-04-01T14:07:35.145Z,12.10
2023-04-01T14:10:24.278Z,12.20
2023-04-01T14:13:20.851Z,12.60
2023-04-01T14:15:56.796Z,12.60
2023-04-01T14:18:50.706Z,12.70
2023-04-01T14:21:44.253Z,12.70
2023-04-01T14:24:36.478Z,12.50
2023-04-01T14:27:11.981Z,12.50
2023-04-01T14:30:15.778Z,12.60
2023-04-01T14:33:02.072Z,12.20
2023-04-01T14:36:00.288Z,12.10
2023-04-01T14:39:03.839Z,12.00
2023-04-01T14:41:48.616Z,11.80
2023-04-01T14:44:31.504Z,11.70
2023-04-01T14:47:10.196Z,11.60
2023-04-01T14:49:41.075Z,11.60
2023-04-01T14:52:29.824Z,11.70
2023-04-01T14:54:58.618Z,11.40
2023-04-01T14:57:30.449Z,11.40
2023-04-01T15:00:19.110Z,11.30
2023-04-01T15:03:04.614Z,11.50
2023-04-01T15:05:59.359Z,11.60
2023-04-01T15:08:29.443Z,11.70
2023-04-01T15:11:05.317Z,11.60
2023-04-01T15:13:45.625Z,11.40
2023-04-01T15:16:45.944Z,11.60
2023-04-01T15:19:21.538Z,11.70
2023-04-01T15:22:03.294Z,11.70
2023-04-01T15:24:45.957Z,11.60
2023-04-01T15:27:26.164Z,11.50
2023-04-01T15:30:02.590Z,11.30
2023-04-01T15:32:57.799Z,11.40
2023-04-01T15:35:47.691Z,11.40
2023-04-01T15:38:39.406Z,11.30
2023-04-01T15:41:16.540Z,11.40
2023-04-01T15:43:53.092Z,11.50
2023-04-01T15:46:32.580Z,11.50
2023-04-01T15:49:12.099Z,11.70
2023-04-01T15:52:03.388Z,11.60
2023-04-01T15:54:55.498Z,11.60
2023-04-01T15:57:40.519Z,11.60
2023-04-01T16:00:30.124Z,11.60
2023-04-01T16:03:31.093Z,11.50
2023-04-01T16:06:03.993Z,11.20
2023-04-01T16:08:46.230Z,11.00
2023-04-01T16:11:47.055Z,10.70
2023-04-01T16:15:00.278Z,10.30
2023-04-01T16:17:54.515Z,9.90
2023-04-01T16:20:35.834Z,9.80
2023-04-01T16:23:40.110Z,9.60
2023-04-01T16:26:14.215Z,9.50
2023-04-01T16:28:51.454Z,9.40
2023-04-01T16:31:28.352Z,9.40
2023-04-01T16:34:20.227Z,9.30
2023-04-01T16:36:54.560Z,9.30
2023-04-01T16:40:02.664Z,9.20
2023-04-01T16:43:10.627Z,9.10
2023-04-01T16:46:26.618Z,9.10
2023-04-01T16:49:01.729Z,9.10
2023-04-01T16:51:58.664Z,9.00
2023-04-01T16:54:44.178Z,9.00
2023-04-01T16:57:11.036Z,9.00
2023-04-01T16:59:42.180Z,8.90
2023-04-01T17:02:09.951Z,8.90
2023-04-01T17:05:20.926Z,8.90
2023-04-01T17:07:57.222Z,8.90
2023-04-01T17:10:48.641Z,8.80
2023-04-01T17:13:34.823Z,8.70
2023-04-01T17:16:22.834Z,8.70
2023-04-01T17:18:49.481Z,8.60
2023-04-01T17:21:42.899Z,8.60
2023-04-01T17:24:26.174Z,8.60
2023-04-01T17:27:17.860Z,8.60
2023-04-01T17:30:20.068Z,8.50
2023-04-01T17:32:57.812Z,8.40
2023-04-01T17:35:36.201Z,8.40
2023-04-01T17:38:15.335Z,8.40
2023-04-01T17:40:45.256Z,8.30
2023-04-01T17:43:49.706Z,8.30
2023-04-01T17:46:46.137Z,8.20
2023-04-01T17:49:27.164Z,8.10
2023-04-01T17:52:31.909Z,8.10
2023-04-01T17:55:16.721Z,8.10
2023-04-01T17:57:53.136Z,8.00
2023-04-01T18:00:38.643Z,8.00
2023-04-01T18:03:36.150Z,8.00
2023-04-01T18:06:20.979Z,7.90
2023-04-01T18:09:01.814Z,7.90
2023-04-01T18:12:06.073Z,7.80
2023-04-01T18:14:54.735Z,7.80
2023-04-01T18:17:40.750Z,7.80
2023-04-01T18:20:41.412Z,7.70
2023-04-01T18:23:36.787Z,7.70
2023-04-01T18:26:13.692Z,7.50
2023-04-01T18:28:50.828Z,7.50
2023-04-01T18:31:23.903Z,7.40
2023-04-01T18:33:59.281Z,7.30
2023-04-01T18:36:35.414Z,7.30
2023-04-01T18:39:08.629Z,7.20
2023-04-01T18:41:52.618Z,7.20
2023-04-01T18:45:08.156Z,7.10
2023-04-01T18:47:49.613Z,7.10
2023-04-01T18:50:25.708Z,7.10
2023-04-01T18:53:16.889Z,7.00
2023-04-01T18:55:55.717Z,6.90
2023-04-01T18:58:34.226Z,6.90
2023-04-01T19:01:35.771Z,6.90
2023-04-01T19:04:22.114Z,6.90
2023-04-01T19:06:53.205Z,6.80
2023-04-01T19:09:24.416Z,6.80
2023-04-01T19:12:08.858Z,6.70
2023-04-01T19:14:55.385Z,6.70
2023-04-01T19:17:38.783Z,6.70
2023-04-01T19:20:25.439Z,6.70
2023-04-01T19:23:44.500Z,6.60
2023-04-01T19:26:35.551Z,6.70
2023-04-01T19:29:40.402Z,6.60
2023-04-01T19:32:26.940Z,6.50
2023-04-01T19:35:49.055Z,6.50
2023-04-01T19:38:36.553Z,6.50
2023-04-01T19:41:36.119Z,6.40
2023-04-01T19:44:05.849Z,6.50
2023-04-01T19:46:44.461Z,6.40
2023-04-01T19:49:35.967Z,6.40
2023-04-01T19:52:16.951Z,6.40
2023-04-01T19:55:06.880Z,6.30
2023-04-01T19:58:09.456Z,6.30
2023-04-01T20:00:42.600Z,6.40
2023-04-01T20:03:29.248Z,6.30
2023-04-01T20:06:12.717Z,6.40
2023-04-01T20:09:17.685Z,6.40
2023-04-01T20:11:58.417Z,6.40
2023-04-01T20:14:52.218Z,6.30
2023-04-01T20:17:21.934Z,6.30
2023-04-01T20:20:14.399Z,6.30
2023-04-01T20:22:47.100Z,6.20
2023-04-01T20:25:37.157Z,6.20
2023-04-01T20:28:19.691Z,6.20
2023-04-01T20:31:35.784Z,6.20
2023-04-01T20:34:20.019Z,6.20
2023-04-01T20:37:06.736Z,6.10
2023-04-01T20:40:13.500Z,6.00
2023-04-01T20:43:02.284Z,6.00
2023-04-01T20:45:47.167Z,5.90
2023-04-01T20:48:13.828Z,5.90
2023-04-01T20:51:00.100Z,5.90
2023-04-01T20:53:38.229Z,6.00
2023-04-01T20:56:19.912Z,6.00
2023-04-01T20:58:54.910Z,6.00
2023-04-01T21:01:54.344Z,5.90
2023-04-01T21:04:38.441Z,5.80
2023-04-01T21:07:22.821Z,5.80
2023-04-01T21:10:01.708Z,5.80
2023-04-01T21:13:22.779Z,5.70
2023-04-01T21:15:49.815Z,5.60
2023-04-01T21:18:48.264Z,5.60
2023-04-01T21:21:42.379Z,5.50
2023-04-01T21:24:50.548Z,5.50
2023-04-01T21:27:37.189Z,5.50
2023-04-01T21:30:22.684Z,5.40
2023-04-01T21:33:08.195Z,5.40
2023-04-01T21:35:57.011Z,5.40
2023-04-01T21:38:59.642Z,5.30
2023-04-01T21:41:35.853Z,5.30
2023-04-01T21:44:26.233Z,5.20
2023-04-01T21:47:20.244Z,5.10
2023-04-01T21:50:14.712Z,5.10
2023-04-01T21:52:59.329Z,5.10
2023-04-01T21:56:03.180Z,5.10
2023-04-01T21:59:37.309Z,5.20
2023-04-01T22:02:34.619Z,5.20
2023-04-01T22:05:21.781Z,5.10
2023-04-01T22:08:16.643Z,5.10
2023-04-01T22:10:59.810Z,5.00
2023-04-01T22:13:45.886Z,5.10
2023-04-01T22:16:37.803Z,5.00
2023-04-01T22:19:22.923Z,4.90
2023-04-01T22:22:08.367Z,4.80
2023-04-01T22:24:50.006Z,4.80
2023-04-01T22:27:27.202Z,4.80
2023-04-01T22:30:04.376Z,4.80
2023-04-01T22:33:03.043Z,4.80
2023-04-01T22:35:47.190Z,4.80
2023-04-01T22:38:58.663Z,4.80
2023-04-01T22:41:57.407Z,4.80
2023-04-01T22:44:36.405Z,4.80
2023-04-01T22:47:27.293Z,4.70
2023-04-01T22:50:04.742Z,4.70
2023-04-01T22:52:41.163Z,4.70
2023-04-01T22:55:26.457Z,4.60
2023-04-01T22:58:03.803Z,4.60
2023-04-01T23:00:47.773Z,4.70
2023-04-01T23:03:25.804Z,4.70
2023-04-01T23:06:04.890Z,4.70
2023-04-01T23:08:54.030Z,4.70
2023-04-01T23:11:29.403Z,4.70
2023-04-01T23:14:20.127Z,4.70
2023-04-01T23:16:58.071Z,4.70
2023-04-01T23:19:49.421Z,4.60
2023-04-01T23:22:25.344Z,4.60
2023-04-01T23:25:00.729Z,4.60
2023-04-01T23:27:40.247Z,4.50
2023-04-01T23:30:39.013Z,4.60
2023-04-01T23:33:20.884Z,4.60
2023-04-01T23:35:56.749Z,4.50
2023-04-01T23:38:27.547Z,4.50
2023-04-01T23:40:55.955Z,4.40
2023-04-01T23:43:29.341Z,4.30
2023-04-01T23:45:56.969Z,4.30
2023-04-01T23:48:30.003Z,4.30
2023-04-01T23:50:58.244Z,4.30
2023-04-01T23:53:33.527Z,4.30
2023-04-01T23:56:00.363Z,4.30
2023-04-01T23:58:41.509Z,4.20
